Time;durP1;ratioP1;P1;durP2;ratioP2;P2;SDS_P1;SDS_P2;PMS_P1;PMS_P2;Temp;Humidity;BMP_temperature;BMP_pressure;BME280_temperature;BME280_humidity;BME280_pressure;Samples;Min_cycle;Max_cycle;Signal;HPM_P1;HPM_P2
2021/10/05 00:01:55;;;;;;;2.70;0.63;;;19.50;93.00;;;;;;5028018;28;20033;-86
2021/10/05 00:04:21;;;;;;;1.77;0.70;;;19.50;93.00;;;;;;5027060;28;20120;-81
2021/10/05 00:06:47;;;;;;;2.15;0.73;;;19.50;93.00;;;;;;5026198;28;20033;-81
2021/10/05 00:09:12;;;;;;;1.05;0.57;;;19.50;93.00;;;;;;5008730;28;20094;-78
2021/10/05 00:11:38;;;;;;;2.08;0.60;;;19.50;93.00;;;;;;5035828;28;20506;-78
2021/10/05 00:14:04;;;;;;;2.70;0.63;;;19.50;93.00;;;;;;5031916;28;20440;-78
2021/10/05 00:16:30;;;;;;;2.78;0.60;;;19.50;93.00;;;;;;5025612;28;20814;-77
2021/10/05 00:18:55;;;;;;;3.22;0.63;;;19.40;92.90;;;;;;5009164;28;20026;-78
2021/10/05 00:21:21;;;;;;;1.90;0.50;;;19.50;93.00;;;;;;5026497;28;20091;-78
2021/10/05 00:23:47;;;;;;;1.50;0.52;;;19.40;92.90;;;;;;5027569;28;20041;-78
2021/10/05 00:26:13;;;;;;;0.93;0.40;;;19.40;92.90;;;;;;5025950;28;20060;-79
2021/10/05 00:28:39;;;;;;;1.48;0.60;;;19.40;92.90;;;;;;5026394;28;20080;-81
2021/10/05 00:31:05;;;;;;;1.75;0.60;;;19.40;92.90;;;;;;5026597;28;20025;-83
2021/10/05 00:33:30;;;;;;;1.60;0.40;;;19.40;92.90;;;;;;5009725;28;20120;-80
2021/10/05 00:35:56;;;;;;;1.58;0.52;;;19.40;92.90;;;;;;5026627;28;20091;-86
2021/10/05 00:38:22;;;;;;;3.08;0.40;;;19.40;92.90;;;;;;5026829;28;20104;-80
2021/10/05 00:40:47;;;;;;;2.00;0.60;;;19.40;92.90;;;;;;5026347;28;20033;-81
2021/10/05 00:43:13;;;;;;;1.40;0.60;;;19.40;92.90;;;;;;5025864;28;20038;-81
2021/10/05 00:45:39;;;;;;;2.05;0.60;;;19.40;92.90;;;;;;5026121;28;20037;-80
2021/10/05 00:48:05;;;;;;;1.27;0.50;;;19.40;92.90;;;;;;5027128;28;20060;-81
2021/10/05 00:50:31;;;;;;;0.95;0.50;;;19.40;92.80;;;;;;5026098;28;20022;-81
2021/10/05 00:52:56;;;;;;;2.13;0.65;;;19.30;92.80;;;;;;5008233;28;20060;-79
2021/10/05 00:55:23;;;;;;;2.55;0.55;;;19.40;92.80;;;;;;5026002;28;20114;-79
2021/10/05 00:57:49;;;;;;;1.65;0.43;;;19.40;92.80;;;;;;5025433;28;20037;-79
2021/10/05 01:00:15;;;;;;;2.15;0.63;;;19.30;92.80;;;;;;5025807;28;20084;-78
2021/10/05 01:02:43;;;;;;;2.15;0.60;;;19.30;92.80;;;;;;5025784;28;20382;-77
2021/10/05 01:05:09;;;;;;;1.60;0.60;;;19.30;92.80;;;;;;5025373;28;20114;-77
2021/10/05 01:07:34;;;;;;;2.25;0.68;;;19.30;92.80;;;;;;5007613;28;20029;-79
2021/10/05 01:10:00;;;;;;;1.52;0.55;;;19.30;92.70;;;;;;5025711;28;20057;-81
2021/10/05 01:12:26;;;;;;;1.50;0.45;;;19.30;92.70;;;;;;5025863;28;20064;-85
2021/10/05 01:14:52;;;;;;;1.88;0.55;;;19.30;92.70;;;;;;5037248;28;20036;-79
2021/10/05 01:17:17;;;;;;;1.38;0.60;;;19.30;92.70;;;;;;5028830;28;20021;-78
2021/10/05 01:19:43;;;;;;;1.95;0.50;;;19.30;92.70;;;;;;5025611;28;20030;-80
2021/10/05 01:22:09;;;;;;;1.77;0.50;;;19.30;92.70;;;;;;5007898;28;20090;-78
2021/10/05 01:24:35;;;;;;;2.42;0.50;;;19.30;92.70;;;;;;5007713;28;20539;-77
2021/10/05 01:27:01;;;;;;;1.38;0.50;;;19.20;92.60;;;;;;5025138;28;20104;-78
2021/10/05 01:29:31;;;;;;;2.35;0.40;;;19.30;92.70;;;;;;5026285;28;20025;-83
2021/10/05 01:31:59;;;;;;;2.20;0.80;;;19.20;92.70;;;;;;5025908;28;20022;-79
2021/10/05 01:34:25;;;;;;;2.15;0.50;;;19.20;92.60;;;;;;5025658;28;20037;-78
2021/10/05 01:36:52;;;;;;;1.48;0.65;;;19.20;92.60;;;;;;5026175;28;20029;-80
2021/10/05 01:39:24;;;;;;;2.17;0.50;;;19.20;92.60;;;;;;5025803;28;20079;-78
2021/10/05 01:41:55;;;;;;;1.55;0.57;;;19.20;92.60;;;;;;5008671;28;20037;-79
2021/10/05 01:44:21;;;;;;;1.63;0.40;;;19.20;92.60;;;;;;5026083;28;20033;-79
2021/10/05 01:46:49;;;;;;;2.20;0.40;;;19.20;92.60;;;;;;5025439;28;20061;-78
2021/10/05 01:49:15;;;;;;;1.83;0.50;;;19.20;92.60;;;;;;5025339;28;20022;-79
2021/10/05 01:51:42;;;;;;;2.60;0.70;;;19.20;92.60;;;;;;5024999;28;20040;-79
2021/10/05 01:54:07;;;;;;;1.85;0.40;;;19.20;92.60;;;;;;5025928;28;20030;-80
2021/10/05 01:56:33;;;;;;;3.00;0.60;;;19.10;92.50;;;;;;5007096;28;20045;-78
2021/10/05 01:58:58;;;;;;;1.48;0.40;;;19.20;92.60;;;;;;5026349;28;20044;-78
2021/10/05 02:01:24;;;;;;;1.88;0.50;;;19.20;92.60;;;;;;5028468;28;20068;-79
2021/10/05 02:03:50;;;;;;;1.40;0.50;;;19.10;92.50;;;;;;5008390;28;20079;-80
2021/10/05 02:06:15;;;;;;;1.65;0.50;;;19.20;92.60;;;;;;5025240;28;20538;-79
2021/10/05 02:08:41;;;;;;;2.42;0.50;;;19.10;92.50;;;;;;5026793;28;20540;-79
2021/10/05 02:11:06;;;;;;;0.90;0.40;;;19.10;92.50;;;;;;5029773;28;20452;-82
2021/10/05 02:13:34;;;;;;;2.33;0.65;;;19.10;92.50;;;;;;5028214;28;20064;-81
2021/10/05 02:16:00;;;;;;;1.63;0.50;;;19.10;92.50;;;;;;5030545;28;20199;-82
2021/10/05 02:18:26;;;;;;;1.35;0.40;;;19.10;92.50;;;;;;5035086;28;20025;-85
2021/10/05 02:20:51;;;;;;;1.63;0.47;;;19.10;92.50;;;;;;5034087;28;20049;-83
2021/10/05 02:23:17;;;;;;;3.20;0.50;;;19.10;92.50;;;;;;5033496;28;20022;-82
2021/10/05 02:25:42;;;;;;;2.08;0.60;;;19.10;92.50;;;;;;5033569;28;20484;-82
2021/10/05 02:28:08;;;;;;;1.80;0.57;;;19.10;92.50;;;;;;5016127;28;21253;-83
2021/10/05 02:30:34;;;;;;;1.95;0.57;;;19.10;92.60;;;;;;5033277;28;20036;-82
2021/10/05 02:32:59;;;;;;;1.52;0.50;;;19.10;93.00;;;;;;5016172;28;20124;-87
2021/10/05 02:35:25;;;;;;;2.13;0.60;;;19.10;93.00;;;;;;5034487;28;20057;-81
2021/10/05 02:37:51;;;;;;;3.22;0.63;;;19.10;92.90;;;;;;5033687;28;20031;-81
2021/10/05 02:40:17;;;;;;;2.17;0.57;;;19.10;92.90;;;;;;5016499;28;20030;-84
2021/10/05 02:42:43;;;;;;;0.90;0.50;;;19.10;92.90;;;;;;5033625;28;20104;-81
2021/10/05 02:45:09;;;;;;;1.27;0.47;;;19.10;92.90;;;;;;5016227;28;20030;-84
2021/10/05 02:47:35;;;;;;;2.22;0.50;;;19.10;92.90;;;;;;5033490;28;20104;-83
2021/10/05 02:50:00;;;;;;;1.35;0.50;;;19.10;92.80;;;;;;5016397;28;20112;-83
2021/10/05 02:52:26;;;;;;;1.73;0.50;;;19.10;92.80;;;;;;5034277;28;20029;-89
2021/10/05 02:54:52;;;;;;;2.50;0.52;;;19.10;92.80;;;;;;5053646;28;20027;-84
2021/10/05 02:57:19;;;;;;;2.20;0.50;;;19.10;92.80;;;;;;5045174;28;20396;-82
2021/10/05 02:59:46;;;;;;;1.15;0.50;;;19.10;92.80;;;;;;5039416;28;20712;-83
2021/10/05 03:02:13;;;;;;;2.88;0.60;;;19.00;92.80;;;;;;5052874;28;20488;-84
2021/10/05 03:04:39;;;;;;;0.77;0.47;;;19.00;92.80;;;;;;5035157;28;20029;-84
2021/10/05 03:07:06;;;;;;;4.03;0.50;;;19.00;92.70;;;;;;5032606;28;20033;-84
2021/10/05 03:09:32;;;;;;;1.60;0.43;;;19.00;92.70;;;;;;5014923;28;20026;-83
2021/10/05 03:11:58;;;;;;;2.20;0.40;;;19.00;92.70;;;;;;5033055;28;20548;-84
2021/10/05 03:14:24;;;;;;;3.58;0.60;;;19.00;92.70;;;;;;5033192;28;20053;-86
2021/10/05 03:16:49;;;;;;;1.23;0.40;;;19.00;92.70;;;;;;5032614;28;20029;-84
2021/10/05 03:19:15;;;;;;;1.42;0.60;;;19.00;92.70;;;;;;5033027;28;20039;-83
2021/10/05 03:21:41;;;;;;;3.17;0.98;;;19.00;92.70;;;;;;5032582;28;20079;-83
2021/10/05 03:24:08;;;;;;;3.38;0.50;;;19.00;92.60;;;;;;5032688;28;20527;-83
2021/10/05 03:26:34;;;;;;;2.97;0.60;;;19.00;92.60;;;;;;5032605;28;20026;-83
2021/10/05 03:29:00;;;;;;;1.10;0.43;;;18.90;92.60;;;;;;5014935;28;20018;-85
2021/10/05 03:31:25;;;;;;;1.63;0.63;;;19.00;92.60;;;;;;5032705;28;20033;-87
2021/10/05 03:33:51;;;;;;;2.25;0.50;;;19.00;92.60;;;;;;5033014;28;20029;-82
2021/10/05 03:36:17;;;;;;;1.35;0.70;;;19.00;92.60;;;;;;5032592;28;20104;-82
2021/10/05 03:38:43;;;;;;;2.63;0.68;;;19.00;92.60;;;;;;5032227;28;20017;-82
2021/10/05 03:41:10;;;;;;;4.60;0.68;;;19.00;92.60;;;;;;5014669;28;20036;-82
2021/10/05 03:43:36;;;;;;;0.95;0.50;;;19.00;92.50;;;;;;5032154;28;20029;-82
2021/10/05 03:46:03;;;;;;;2.42;0.60;;;18.90;92.50;;;;;;5032486;28;20022;-82
2021/10/05 03:48:30;;;;;;;1.05;0.45;;;19.00;92.50;;;;;;5032113;28;20397;-83
2021/10/05 03:50:55;;;;;;;1.10;0.50;;;18.90;92.50;;;;;;5032528;28;20021;-87
2021/10/05 03:53:21;;;;;;;1.60;0.55;;;18.90;92.50;;;;;;5032553;28;20072;-85
2021/10/05 03:55:53;;;;;;;1.45;0.65;;;18.90;92.50;;;;;;5032008;28;20025;-83
2021/10/05 03:58:19;;;;;;;1.45;0.50;;;18.90;92.50;;;;;;5032361;28;20079;-83
2021/10/05 04:00:46;;;;;;;1.33;0.32;;;18.90;92.40;;;;;;5030774;28;20309;-83
2021/10/05 04:03:12;;;;;;;1.75;0.50;;;18.90;92.40;;;;;;5031868;28;20020;-83
2021/10/05 04:05:38;;;;;;;0.85;0.35;;;18.90;92.40;;;;;;5031820;28;20029;-83
2021/10/05 04:08:04;;;;;;;1.25;0.50;;;18.90;92.40;;;;;;5031844;28;20033;-82
2021/10/05 04:10:30;;;;;;;3.17;0.77;;;18.90;92.40;;;;;;5031868;28;20025;-83
2021/10/05 04:12:56;;;;;;;2.42;0.63;;;18.90;92.30;;;;;;5014504;28;20092;-88
2021/10/05 04:15:22;;;;;;;1.13;0.40;;;18.90;92.30;;;;;;5032220;28;20124;-83
2021/10/05 04:17:48;;;;;;;2.58;0.70;;;18.90;92.30;;;;;;5031509;28;20033;-83
2021/10/05 04:20:13;;;;;;;3.35;0.60;;;18.90;92.30;;;;;;5031814;28;20034;-83
2021/10/05 04:22:39;;;;;;;1.27;0.60;;;18.90;92.30;;;;;;5031495;28;20026;-83
2021/10/05 04:25:06;;;;;;;2.03;0.50;;;18.90;92.30;;;;;;5031672;28;20016;-83
2021/10/05 04:27:36;;;;;;;1.50;0.50;;;18.90;92.30;;;;;;5031493;28;20029;-84
2021/10/05 04:30:06;;;;;;;2.60;0.60;;;18.90;92.20;;;;;;5031553;28;20025;-85
2021/10/05 04:32:32;;;;;;;4.22;1.02;;;18.90;92.20;;;;;;5029562;28;20160;-83
2021/10/05 04:34:58;;;;;;;1.42;0.52;;;18.80;92.20;;;;;;5031506;28;20108;-83
2021/10/05 04:37:23;;;;;;;1.98;0.50;;;18.80;92.20;;;;;;5031739;28;20022;-83
2021/10/05 04:39:49;;;;;;;1.10;0.50;;;18.80;92.20;;;;;;5031373;28;20033;-84
2021/10/05 04:42:14;;;;;;;1.33;0.50;;;18.80;92.10;;;;;;5030793;28;20064;-84
2021/10/05 04:44:40;;;;;;;1.42;0.60;;;18.80;92.10;;;;;;5031152;28;20109;-84
2021/10/05 04:47:06;;;;;;;2.58;0.60;;;18.80;92.10;;;;;;5031014;28;20033;-85
2021/10/05 04:49:32;;;;;;;2.20;0.55;;;18.80;92.10;;;;;;5029916;28;20022;-84
2021/10/05 04:51:58;;;;;;;2.50;0.60;;;18.80;92.10;;;;;;5031507;28;20025;-84
2021/10/05 04:54:24;;;;;;;1.70;0.50;;;18.80;92.10;;;;;;5031511;28;20033;-83
2021/10/05 04:56:51;;;;;;;1.75;0.60;;;18.80;92.10;;;;;;5031156;28;20572;-81
2021/10/05 04:59:18;;;;;;;1.98;0.70;;;18.80;92.10;;;;;;5031225;28;20021;-81
2021/10/05 05:01:45;;;;;;;2.72;0.60;;;18.80;92.10;;;;;;5030893;28;20061;-80
2021/10/05 05:04:10;;;;;;;2.13;0.52;;;18.80;92.10;;;;;;5030983;28;20045;-80
2021/10/05 05:06:37;;;;;;;1.42;0.43;;;18.80;92.20;;;;;;5013216;28;20128;-81
2021/10/05 05:09:03;;;;;;;2.83;0.82;;;18.80;92.10;;;;;;5013182;28;20029;-79
2021/10/05 05:11:29;;;;;;;3.17;1.50;;;18.80;92.10;;;;;;5031289;28;20032;-80
2021/10/05 05:13:54;;;;;;;2.40;0.60;;;18.80;92.20;;;;;;5031112;28;20033;-80
2021/10/05 05:16:20;;;;;;;3.72;1.05;;;18.80;92.10;;;;;;5030788;28;20038;-81
2021/10/05 05:18:46;;;;;;;4.22;1.15;;;18.70;92.10;;;;;;5013098;28;20021;-80
2021/10/05 05:21:11;;;;;;;2.20;1.10;;;18.80;92.10;;;;;;5030845;28;20112;-80
2021/10/05 05:23:37;;;;;;;5.20;0.90;;;18.80;92.10;;;;;;5030899;28;20027;-80
2021/10/05 05:26:03;;;;;;;3.67;1.40;;;18.80;92.10;;;;;;5030866;28;20060;-81
2021/10/05 05:28:28;;;;;;;4.00;1.42;;;18.80;92.10;;;;;;5030884;28;20389;-81
2021/10/05 05:30:54;;;;;;;4.05;1.25;;;18.80;92.10;;;;;;5030891;28;20061;-79
2021/10/05 05:33:20;;;;;;;3.15;1.27;;;18.70;92.10;;;;;;5030873;28;20027;-80
2021/10/05 05:35:46;;;;;;;4.88;1.35;;;18.80;92.50;;;;;;5013016;28;20075;-79
2021/10/05 05:38:11;;;;;;;4.60;1.20;;;18.80;92.40;;;;;;5013111;28;20018;-81
2021/10/05 05:40:37;;;;;;;5.05;1.40;;;18.70;92.50;;;;;;5030591;28;20033;-80
2021/10/05 05:43:03;;;;;;;3.60;1.23;;;18.70;92.80;;;;;;5031740;28;20021;-79
2021/10/05 05:45:30;;;;;;;2.45;1.30;;;18.80;92.60;;;;;;5034415;28;20029;-80
2021/10/05 05:47:56;;;;;;;3.47;1.20;;;18.80;92.60;;;;;;5034776;28;20071;-85
2021/10/05 05:50:21;;;;;;;2.55;1.08;;;18.80;92.60;;;;;;5034731;28;20489;-80
2021/10/05 05:52:47;;;;;;;2.92;0.90;;;18.70;92.70;;;;;;5034326;28;20063;-79
2021/10/05 05:55:15;;;;;;;3.78;1.27;;;18.70;92.70;;;;;;5034288;28;20103;-80
2021/10/05 05:57:41;;;;;;;4.15;0.88;;;18.70;92.80;;;;;;5034280;28;20021;-80
2021/10/05 06:00:08;;;;;;;4.90;1.50;;;18.70;92.80;;;;;;5016336;28;20401;-80
2021/10/05 06:02:33;;;;;;;4.30;1.15;;;18.70;92.80;;;;;;5034073;28;20033;-81
2021/10/05 06:04:59;;;;;;;2.38;1.10;;;18.70;92.80;;;;;;5034237;28;20033;-81
2021/10/05 06:07:24;;;;;;;7.60;0.98;;;18.80;92.90;;;;;;5034306;28;20087;-80
2021/10/05 06:09:50;;;;;;;4.53;0.90;;;18.80;92.90;;;;;;5016204;28;20078;-82
2021/10/05 06:12:19;;;;;;;2.22;0.95;;;18.80;92.90;;;;;;5033896;28;20038;-82
2021/10/05 06:14:45;;;;;;;3.20;0.90;;;18.70;92.90;;;;;;5033769;28;20096;-82
2021/10/05 06:17:11;;;;;;;3.50;1.00;;;18.70;92.90;;;;;;5034255;28;20064;-82
2021/10/05 06:19:37;;;;;;;2.05;0.90;;;18.70;92.90;;;;;;5033904;28;20013;-81
2021/10/05 06:22:03;;;;;;;4.50;1.00;;;18.70;92.90;;;;;;5033731;28;20037;-81
2021/10/05 06:24:29;;;;;;;5.35;1.00;;;18.70;92.90;;;;;;5033616;28;20477;-81
2021/10/05 06:26:55;;;;;;;6.50;0.98;;;18.80;93.40;;;;;;5034048;28;20017;-82
2021/10/05 06:29:21;;;;;;;2.08;0.73;;;18.80;93.20;;;;;;5032449;28;20033;-81
2021/10/05 06:31:47;;;;;;;3.30;0.70;;;18.70;93.50;;;;;;5033495;28;20033;-84
2021/10/05 06:34:12;;;;;;;2.45;1.08;;;18.80;93.20;;;;;;5016001;28;20087;-81
2021/10/05 06:36:38;;;;;;;2.42;0.80;;;18.80;93.20;;;;;;5015530;28;20515;-81
2021/10/05 06:39:04;;;;;;;3.63;1.00;;;18.80;93.20;;;;;;5033343;28;20113;-83
2021/10/05 06:41:29;;;;;;;2.53;0.73;;;18.80;93.30;;;;;;5015750;28;20060;-84
2021/10/05 06:43:55;;;;;;;2.70;0.80;;;18.70;93.10;;;;;;5033936;28;20025;-89
2021/10/05 06:46:21;;;;;;;3.42;0.88;;;18.70;93.30;;;;;;5033548;28;20516;-81
2021/10/05 06:48:46;;;;;;;4.53;1.13;;;18.80;93.30;;;;;;5033019;28;20017;-82
2021/10/05 06:51:13;;;;;;;3.10;0.80;;;18.80;93.30;;;;;;5033356;28;20026;-80
2021/10/05 06:53:39;;;;;;;4.53;1.23;;;18.80;93.30;;;;;;5032864;28;20040;-81
2021/10/05 06:56:05;;;;;;;4.22;0.98;;;18.80;93.40;;;;;;5033475;28;20026;-82
2021/10/05 06:58:30;;;;;;;6.45;2.10;;;18.80;93.40;;;;;;5033067;28;20116;-81
2021/10/05 07:00:56;;;;;;;4.78;1.65;;;18.80;93.40;;;;;;5033164;28;20104;-85
2021/10/05 07:03:21;;;;;;;5.65;1.63;;;18.80;93.50;;;;;;5033277;28;20482;-81
2021/10/05 07:05:47;;;;;;;7.60;2.00;;;18.80;93.60;;;;;;5031320;28;20029;-81
2021/10/05 07:08:14;;;;;;;12.60;1.95;;;18.80;93.60;;;;;;5031808;28;20037;-79
2021/10/05 07:10:41;;;;;;;4.47;1.63;;;18.80;93.70;;;;;;5032979;28;20033;-78
2021/10/05 07:13:07;;;;;;;7.10;1.75;;;18.80;93.70;;;;;;5032748;28;20030;-80
2021/10/05 07:15:33;;;;;;;4.35;1.30;;;18.80;93.70;;;;;;5032491;28;20477;-81
2021/10/05 07:17:59;;;;;;;8.52;1.85;;;18.90;93.70;;;;;;5033027;28;20036;-82
2021/10/05 07:20:30;;;;;;;10.55;1.50;;;18.80;93.60;;;;;;5032481;28;20025;-81
2021/10/05 07:22:56;;;;;;;4.07;1.20;;;18.90;93.50;;;;;;5032113;28;20033;-85
2021/10/05 07:25:22;;;;;;;6.15;1.48;;;18.90;93.60;;;;;;5031741;28;20018;-81
2021/10/05 07:27:51;;;;;;;5.90;1.60;;;18.80;93.50;;;;;;5031566;28;20021;-80
2021/10/05 07:30:24;;;;;;;3.00;1.10;;;18.90;93.40;;;;;;5031578;28;20053;-81
2021/10/05 07:33:02;;;;;;;7.35;1.70;;;18.90;93.40;;;;;;5031877;28;20071;-81
2021/10/05 07:35:28;;;;;;;14.43;1.40;;;19.00;93.50;;;;;;5029805;28;20021;-83
2021/10/05 07:37:55;;;;;;;4.75;1.00;;;19.00;93.40;;;;;;5032255;28;20052;-82
2021/10/05 07:40:21;;;;;;;7.50;1.33;;;19.00;93.50;;;;;;5031740;28;20032;-81
2021/10/05 07:42:49;;;;;;;4.55;1.27;;;19.00;93.40;;;;;;5031674;28;20029;-81
2021/10/05 07:45:14;;;;;;;6.07;1.05;;;19.00;93.40;;;;;;5032344;28;20049;-81
2021/10/05 07:47:40;;;;;;;6.20;1.20;;;19.00;93.40;;;;;;5030757;28;20509;-82
2021/10/05 07:50:06;;;;;;;5.38;1.00;;;19.00;93.30;;;;;;5032427;28;20025;-82
2021/10/05 07:52:31;;;;;;;5.05;0.90;;;19.00;93.30;;;;;;5032080;28;20029;-82
2021/10/05 07:54:57;;;;;;;4.60;1.00;;;19.10;93.30;;;;;;5032455;28;20120;-82
2021/10/05 07:57:23;;;;;;;6.43;1.23;;;19.10;93.30;;;;;;5032363;28;20393;-82
2021/10/05 07:59:50;;;;;;;4.47;0.90;;;19.10;93.30;;;;;;5031729;28;20018;-82
2021/10/05 08:02:15;;;;;;;6.90;1.95;;;19.10;93.20;;;;;;5032166;28;20148;-82
2021/10/05 08:04:41;;;;;;;8.98;1.17;;;19.10;93.20;;;;;;5031625;28;20100;-83
2021/10/05 08:07:07;;;;;;;10.82;0.98;;;19.10;93.10;;;;;;5030961;28;20056;-81
2021/10/05 08:09:32;;;;;;;7.72;1.60;;;19.20;93.20;;;;;;5031856;28;20104;-83
2021/10/05 08:11:58;;;;;;;7.75;1.23;;;19.20;93.10;;;;;;5031907;28;20079;-82
2021/10/05 08:14:23;;;;;;;8.40;1.08;;;19.20;93.10;;;;;;5032310;28;20021;-79
2021/10/05 08:16:49;;;;;;;4.43;0.90;;;19.20;93.10;;;;;;5030408;28;20519;-80
2021/10/05 08:19:15;;;;;;;4.78;0.88;;;19.20;93.00;;;;;;5031659;28;20022;-80
2021/10/05 08:21:41;;;;;;;6.60;0.85;;;19.20;93.00;;;;;;5031247;28;20075;-82
2021/10/05 08:24:08;;;;;;;10.02;1.80;;;19.20;93.00;;;;;;5031220;28;20025;-80
2021/10/05 08:26:34;;;;;;;7.90;0.80;;;19.30;93.20;;;;;;5031506;28;20362;-80
2021/10/05 08:29:00;;;;;;;8.75;1.10;;;19.30;93.00;;;;;;5031582;28;20014;-80
2021/10/05 08:31:25;;;;;;;4.38;0.98;;;19.30;93.00;;;;;;5031804;28;20037;-80
2021/10/05 08:33:51;;;;;;;8.73;0.95;;;19.30;93.00;;;;;;5031997;28;20037;-80
2021/10/05 08:36:18;;;;;;;6.68;1.10;;;19.30;93.00;;;;;;5031508;28;20025;-80
2021/10/05 08:38:44;;;;;;;10.73;1.30;;;19.30;93.00;;;;;;5031269;28;20484;-80
2021/10/05 08:41:10;;;;;;;8.75;0.93;;;19.30;93.00;;;;;;5031329;28;20045;-79
2021/10/05 08:43:36;;;;;;;4.20;0.90;;;19.30;92.90;;;;;;5031191;28;20026;-82
2021/10/05 08:46:03;;;;;;;3.85;0.70;;;19.30;92.90;;;;;;5031517;28;20028;-81
2021/10/05 08:48:31;;;;;;;4.88;1.25;;;19.30;92.80;;;;;;5031164;28;20064;-81
2021/10/05 08:50:56;;;;;;;11.18;1.15;;;19.30;92.80;;;;;;5030352;28;20029;-85
2021/10/05 08:53:22;;;;;;;4.47;1.10;;;19.40;92.80;;;;;;5031405;28;20084;-80
2021/10/05 08:55:47;;;;;;;3.75;1.02;;;19.40;92.80;;;;;;5031165;28;20436;-84
2021/10/05 08:58:13;;;;;;;7.38;0.70;;;19.40;92.70;;;;;;5031309;28;20095;-83
2021/10/05 09:00:39;;;;;;;3.05;0.88;;;19.40;92.70;;;;;;5029286;28;20022;-79
2021/10/05 09:03:04;;;;;;;5.47;1.02;;;19.40;92.60;;;;;;5031178;28;20025;-81
2021/10/05 09:05:30;;;;;;;4.15;0.75;;;19.40;92.60;;;;;;5030801;28;20021;-81
2021/10/05 09:07:57;;;;;;;2.70;0.68;;;19.40;92.60;;;;;;5030947;28;20527;-85
2021/10/05 09:10:30;;;;;;;6.53;1.02;;;19.40;92.50;;;;;;5024894;28;20115;-82
2021/10/05 09:12:56;;;;;;;3.10;0.80;;;19.40;92.60;;;;;;5028139;28;20393;-79
2021/10/05 09:15:22;;;;;;;6.80;1.75;;;19.40;92.50;;;;;;5030924;28;20018;-86
2021/10/05 09:17:57;;;;;;;5.85;3.58;;;19.40;92.50;;;;;;5031478;28;20378;-80
2021/10/05 09:20:34;;;;;;;5.25;3.08;;;19.40;92.60;;;;;;5035457;28;20045;-80
2021/10/05 09:23:09;;;;;;;7.13;2.35;;;19.40;92.80;;;;;;5034507;28;20086;-80
2021/10/05 09:25:41;;;;;;;5.20;2.03;;;19.50;93.20;;;;;;5035057;28;20029;-81
2021/10/05 09:28:20;;;;;;;5.70;2.38;;;19.50;93.20;;;;;;5035178;28;20029;-81
2021/10/05 09:31:03;;;;;;;4.75;1.50;;;19.60;93.30;;;;;;5034752;28;20060;-81
2021/10/05 09:33:30;;;;;;;3.90;1.65;;;19.60;93.50;;;;;;5034724;28;20032;-83
2021/10/05 09:35:56;;;;;;;5.22;1.38;;;19.70;93.70;;;;;;5034795;28;20607;-83
2021/10/05 09:38:24;;;;;;;7.07;1.80;;;19.70;93.60;;;;;;5035175;28;20104;-83
2021/10/05 09:41:03;;;;;;;9.18;1.30;;;19.70;93.40;;;;;;5034533;28;20447;-82
2021/10/05 09:43:29;;;;;;;6.32;1.48;;;19.80;93.50;;;;;;5031453;28;20105;-82
2021/10/05 09:46:11;;;;;;;3.65;1.02;;;19.90;93.40;;;;;;5034954;28;20524;-82
2021/10/05 09:48:37;;;;;;;3.25;0.90;;;19.90;93.40;;;;;;5034210;28;20022;-82
2021/10/05 09:51:16;;;;;;;3.33;1.00;;;19.90;94.10;;;;;;5034647;28;20461;-80
2021/10/05 09:53:41;;;;;;;5.18;1.02;;;20.00;93.70;;;;;;5033948;28;20045;-80
2021/10/05 09:56:08;;;;;;;4.45;1.38;;;20.00;93.40;;;;;;5033953;28;20077;-80
2021/10/05 09:58:34;;;;;;;11.73;2.00;;;20.00;93.60;;;;;;5034103;28;20056;-81
2021/10/05 10:01:00;;;;;;;9.40;1.10;;;20.10;93.50;;;;;;5034149;28;20083;-81
2021/10/05 10:03:27;;;;;;;6.38;1.60;;;20.10;93.20;;;;;;5034347;28;20542;-80
2021/10/05 10:05:53;;;;;;;4.93;1.02;;;20.10;93.00;;;;;;5034633;28;20025;-81
2021/10/05 10:08:21;;;;;;;1.83;0.90;;;20.10;92.70;;;;;;5034230;28;20029;-81
2021/10/05 10:10:47;;;;;;;5.20;1.42;;;20.20;92.70;;;;;;5033993;28;20068;-81
2021/10/05 10:13:13;;;;;;;3.72;0.98;;;20.20;92.60;;;;;;5034101;28;20030;-80
2021/10/05 10:15:41;;;;;;;2.83;1.00;;;20.30;92.50;;;;;;5034073;28;20037;-80
2021/10/05 10:18:08;;;;;;;1.92;0.65;;;20.30;92.30;;;;;;5033975;28;20075;-81
2021/10/05 10:20:36;;;;;;;2.40;0.77;;;20.30;92.20;;;;;;5033428;28;20025;-79
2021/10/05 10:23:02;;;;;;;3.40;1.02;;;20.40;92.30;;;;;;5034323;28;20405;-80
2021/10/05 10:25:31;;;;;;;3.17;0.65;;;20.40;92.50;;;;;;5033803;28;20028;-80
2021/10/05 10:28:09;;;;;;;5.82;0.95;;;20.40;92.40;;;;;;5032642;28;20087;-81
2021/10/05 10:30:46;;;;;;;1.85;0.52;;;20.50;92.30;;;;;;5033279;28;20031;-81
2021/10/05 10:33:12;;;;;;;2.30;0.70;;;20.50;92.30;;;;;;5033936;28;20052;-80
2021/10/05 10:35:48;;;;;;;4.05;1.00;;;20.50;92.20;;;;;;5033376;28;20038;-80
2021/10/05 10:38:30;;;;;;;1.88;0.63;;;20.60;92.20;;;;;;5033782;28;20029;-81
2021/10/05 10:40:58;;;;;;;4.00;0.55;;;20.60;91.80;;;;;;5033721;28;20034;-82
2021/10/05 10:43:27;;;;;;;3.97;0.60;;;20.60;91.90;;;;;;5033830;28;20031;-82
2021/10/05 10:46:00;;;;;;;3.55;0.70;;;20.60;92.00;;;;;;5032638;28;20378;-82
2021/10/05 10:48:28;;;;;;;9.27;0.70;;;20.70;92.20;;;;;;5033691;28;20025;-84
2021/10/05 10:50:55;;;;;;;5.13;0.80;;;20.70;91.90;;;;;;5033695;28;20112;-81
2021/10/05 10:53:37;;;;;;;8.52;1.05;;;20.70;91.80;;;;;;5033772;28;20030;-85
2021/10/05 10:56:03;;;;;;;7.90;0.80;;;20.80;91.80;;;;;;5033427;28;20400;-83
2021/10/05 10:58:37;;;;;;;5.93;1.10;;;20.80;91.80;;;;;;5033234;28;20017;-83
2021/10/05 11:01:03;;;;;;;4.20;0.63;;;20.90;91.60;;;;;;5033130;28;20025;-83
2021/10/05 11:03:28;;;;;;;2.90;0.60;;;20.90;91.50;;;;;;5033034;28;20025;-83
2021/10/05 11:05:54;;;;;;;8.60;0.88;;;21.00;91.30;;;;;;5033333;28;20057;-84
2021/10/05 11:08:20;;;;;;;5.22;0.85;;;21.00;91.20;;;;;;5032979;28;20044;-83
2021/10/05 11:10:46;;;;;;;2.58;0.90;;;21.00;91.00;;;;;;5032913;28;20037;-85
2021/10/05 11:13:11;;;;;;;8.48;1.00;;;21.00;91.00;;;;;;5033026;28;20481;-82
2021/10/05 11:15:44;;;;;;;8.43;0.95;;;21.10;90.90;;;;;;5031637;28;20036;-83
2021/10/05 11:18:28;;;;;;;8.93;0.80;;;21.10;90.60;;;;;;5033212;28;20075;-83
2021/10/05 11:20:59;;;;;;;2.45;0.70;;;21.10;90.60;;;;;;5032914;28;20113;-83
2021/10/05 11:23:26;;;;;;;3.65;0.75;;;21.20;90.60;;;;;;5033197;28;20044;-82
2021/10/05 11:25:57;;;;;;;2.85;0.95;;;21.10;90.70;;;;;;5033146;28;20040;-82
2021/10/05 11:28:32;;;;;;;4.10;0.52;;;21.10;90.60;;;;;;5033192;28;20026;-83
2021/10/05 11:31:06;;;;;;;2.65;0.65;;;21.10;90.70;;;;;;5032849;28;20026;-82
2021/10/05 11:33:35;;;;;;;4.47;0.43;;;21.10;90.70;;;;;;5032168;28;20033;-81
2021/10/05 11:36:21;;;;;;;4.65;1.55;;;21.10;90.60;;;;;;5032730;28;20526;-83
2021/10/05 11:38:49;;;;;;;6.28;1.50;;;21.10;90.80;;;;;;5030837;28;20431;-82
2021/10/05 11:41:16;;;;;;;3.58;0.88;;;21.10;91.00;;;;;;5029958;28;20030;-82
2021/10/05 11:43:46;;;;;;;4.55;1.10;;;21.10;90.80;;;;;;5030472;28;20025;-82
2021/10/05 11:46:14;;;;;;;4.03;0.90;;;21.10;90.80;;;;;;5029027;28;20033;-82
2021/10/05 11:48:45;;;;;;;5.13;1.08;;;21.10;90.70;;;;;;5030775;28;20116;-81
2021/10/05 11:51:12;;;;;;;3.17;1.02;;;21.10;90.60;;;;;;5032277;28;20071;-82
2021/10/05 11:53:39;;;;;;;1.40;0.70;;;21.10;90.90;;;;;;5032024;28;20029;-83
2021/10/05 11:56:06;;;;;;;3.03;1.00;;;21.10;90.80;;;;;;5032285;28;20018;-83
2021/10/05 11:58:49;;;;;;;3.55;1.00;;;21.20;90.60;;;;;;5031859;28;20443;-79
2021/10/05 12:01:27;;;;;;;2.90;0.80;;;21.20;90.40;;;;;;5032107;28;20038;-79
2021/10/05 12:04:08;;;;;;;5.85;1.33;;;21.30;90.40;;;;;;5032448;28;20160;-81
2021/10/05 12:06:38;;;;;;;3.40;0.80;;;21.40;90.90;;;;;;5031540;28;20507;-81
2021/10/05 12:09:06;;;;;;;4.38;0.70;;;21.50;90.20;;;;;;5031630;28;20091;-81
2021/10/05 12:11:35;;;;;;;1.20;0.70;;;21.60;89.70;;;;;;5031699;28;20029;-81
2021/10/05 12:14:02;;;;;;;2.90;0.80;;;21.80;88.80;;;;;;5032040;28;20063;-81
2021/10/05 12:16:27;;;;;;;2.80;0.70;;;22.00;88.10;;;;;;5031425;28;20017;-81
2021/10/05 12:18:58;;;;;;;3.05;0.95;;;22.20;87.00;;;;;;5032043;28;20032;-81
2021/10/05 12:21:24;;;;;;;4.38;0.95;;;22.40;85.80;;;;;;5031531;28;20037;-80
2021/10/05 12:23:51;;;;;;;2.63;0.80;;;22.70;85.00;;;;;;5031611;28;20105;-80
2021/10/05 12:26:17;;;;;;;1.50;0.70;;;22.90;82.50;;;;;;5031743;28;20071;-80
2021/10/05 12:28:58;;;;;;;3.38;0.93;;;23.10;82.10;;;;;;5031028;28;20021;-79
2021/10/05 12:31:27;;;;;;;2.88;0.75;;;23.20;80.50;;;;;;5013827;28;20059;-80
2021/10/05 12:34:00;;;;;;;2.25;0.63;;;23.20;80.70;;;;;;5031709;28;20013;-80
2021/10/05 12:36:27;;;;;;;2.70;0.60;;;23.20;80.00;;;;;;5031424;28;20037;-80
2021/10/05 12:38:53;;;;;;;4.15;1.52;;;23.10;80.20;;;;;;5031564;28;20037;-79
2021/10/05 12:41:19;;;;;;;1.88;0.60;;;23.00;80.30;;;;;;5029683;28;20104;-80
2021/10/05 12:43:47;;;;;;;4.60;0.70;;;23.00;80.90;;;;;;5029605;28;20056;-82
2021/10/05 12:46:16;;;;;;;7.47;1.45;;;23.00;81.00;;;;;;5031126;28;20018;-81